< < Back
Terminal Aerodrome Forecast


Current Version              Previous Versions:   1  2  3  4  5  6  7  8  9  

Terminal Aerodrome Forecast

037
FTUS44 KMOB 252349
TAFPNS
TAF
KPNS 252349Z 2600/2624 VRB05KT P6SM BKN100
     FM260600 26005KT P6SM BKN008
     FM261500 27005KT P6SM SCT250=

Latest METAR

312
SAUS70 KWBC 260100 RRA
MTRPNS
METAR KPNS 260053Z 16005KT 10SM CLR 21/19 A2971 RMK AO2 SLP062
T02110194


USA.gov is the U.S. government's official web portal to all federal, state and local government web resources and services.